sensor_id;sensor_type;location;lat;lon;timestamp;temperature;humidity
8152;DHT22;4117;53.622;9.958;2023-05-07T00:00:49;8.70;1.00
8152;DHT22;4117;53.622;9.958;2023-05-07T00:03:16;8.70;1.00
8152;DHT22;4117;53.622;9.958;2023-05-07T00:05:45;8.70;1.00
8152;DHT22;4117;53.622;9.958;2023-05-07T00:08:13;8.60;1.00
8152;DHT22;4117;53.622;9.958;2023-05-07T00:10:40;8.60;1.00
8152;DHT22;4117;53.622;9.958;2023-05-07T00:13:07;8.60;1.00
8152;DHT22;4117;53.622;9.958;2023-05-07T00:15:35;8.60;1.00
8152;DHT22;4117;53.622;9.958;2023-05-07T00:18:02;8.60;1.00
8152;DHT22;4117;53.622;9.958;2023-05-07T00:20:29;8.60;1.00
8152;DHT22;4117;53.622;9.958;2023-05-07T00:22:57;8.60;1.00
8152;DHT22;4117;53.622;9.958;2023-05-07T00:25:24;8.60;1.00
8152;DHT22;4117;53.622;9.958;2023-05-07T00:27:51;8.60;1.00
8152;DHT22;4117;53.622;9.958;2023-05-07T00:30:18;8.60;1.00
8152;DHT22;4117;53.622;9.958;2023-05-07T00:32:46;8.60;1.00
8152;DHT22;4117;53.622;9.958;2023-05-07T00:35:14;8.60;1.00
8152;DHT22;4117;53.622;9.958;2023-05-07T00:37:41;8.60;1.00
8152;DHT22;4117;53.622;9.958;2023-05-07T00:40:10;8.60;1.00
8152;DHT22;4117;53.622;9.958;2023-05-07T00:42:37;8.60;1.00
8152;DHT22;4117;53.622;9.958;2023-05-07T00:45:04;8.60;1.00
8152;DHT22;4117;53.622;9.958;2023-05-07T00:47:33;8.60;1.00
8152;DHT22;4117;53.622;9.958;2023-05-07T00:50:00;8.60;1.00
8152;DHT22;4117;53.622;9.958;2023-05-07T00:52:27;8.60;1.00
8152;DHT22;4117;53.622;9.958;2023-05-07T00:54:55;8.60;1.00
8152;DHT22;4117;53.622;9.958;2023-05-07T00:57:24;8.60;1.00
8152;DHT22;4117;53.622;9.958;2023-05-07T00:59:52;8.60;1.00
8152;DHT22;4117;53.622;9.958;2023-05-07T01:02:19;8.60;1.00
8152;DHT22;4117;53.622;9.958;2023-05-07T01:04:46;8.60;1.00
8152;DHT22;4117;53.622;9.958;2023-05-07T01:07:13;8.70;1.00
8152;DHT22;4117;53.622;9.958;2023-05-07T01:09:41;8.60;1.00
8152;DHT22;4117;53.622;9.958;2023-05-07T01:12:08;8.60;1.00
8152;DHT22;4117;53.622;9.958;2023-05-07T01:14:36;8.60;1.00
8152;DHT22;4117;53.622;9.958;2023-05-07T01:17:04;8.70;1.00
8152;DHT22;4117;53.622;9.958;2023-05-07T01:19:31;8.60;1.00
8152;DHT22;4117;53.622;9.958;2023-05-07T01:22:02;8.60;1.00
8152;DHT22;4117;53.622;9.958;2023-05-07T01:24:32;8.70;1.00
8152;DHT22;4117;53.622;9.958;2023-05-07T01:26:59;8.70;1.00
8152;DHT22;4117;53.622;9.958;2023-05-07T01:29:28;8.60;1.00
8152;DHT22;4117;53.622;9.958;2023-05-07T01:31:57;8.70;1.00
8152;DHT22;4117;53.622;9.958;2023-05-07T01:34:25;8.70;1.00
8152;DHT22;4117;53.622;9.958;2023-05-07T01:36:54;8.60;1.00
8152;DHT22;4117;53.622;9.958;2023-05-07T01:39:25;8.60;1.00
8152;DHT22;4117;53.622;9.958;2023-05-07T01:41:54;8.60;1.00
8152;DHT22;4117;53.622;9.958;2023-05-07T01:44:22;8.60;1.00
8152;DHT22;4117;53.622;9.958;2023-05-07T01:46:49;8.60;1.00
8152;DHT22;4117;53.622;9.958;2023-05-07T01:49:17;8.60;1.00
8152;DHT22;4117;53.622;9.958;2023-05-07T01:51:44;8.60;1.00
8152;DHT22;4117;53.622;9.958;2023-05-07T01:54:11;8.60;1.00
8152;DHT22;4117;53.622;9.958;2023-05-07T01:56:37;8.60;1.00
8152;DHT22;4117;53.622;9.958;2023-05-07T01:59:06;8.60;1.00
8152;DHT22;4117;53.622;9.958;2023-05-07T02:01:32;8.60;1.00
8152;DHT22;4117;53.622;9.958;2023-05-07T02:04:01;8.60;1.00
8152;DHT22;4117;53.622;9.958;2023-05-07T02:06:28;8.60;1.00
8152;DHT22;4117;53.622;9.958;2023-05-07T02:08:56;8.60;1.00
8152;DHT22;4117;53.622;9.958;2023-05-07T02:11:23;8.60;1.00
8152;DHT22;4117;53.622;9.958;2023-05-07T02:13:50;8.60;1.00
8152;DHT22;4117;53.622;9.958;2023-05-07T02:16:19;8.60;1.00
8152;DHT22;4117;53.622;9.958;2023-05-07T02:18:47;8.60;1.00
8152;DHT22;4117;53.622;9.958;2023-05-07T02:21:14;8.60;1.00
8152;DHT22;4117;53.622;9.958;2023-05-07T02:23:41;8.60;1.00
8152;DHT22;4117;53.622;9.958;2023-05-07T02:26:08;8.60;1.00
8152;DHT22;4117;53.622;9.958;2023-05-07T02:28:35;8.60;1.00
8152;DHT22;4117;53.622;9.958;2023-05-07T02:31:05;8.60;1.00
8152;DHT22;4117;53.622;9.958;2023-05-07T02:33:34;8.60;1.00
8152;DHT22;4117;53.622;9.958;2023-05-07T02:36:09;8.60;1.00
8152;DHT22;4117;53.622;9.958;2023-05-07T02:38:36;8.60;1.00
8152;DHT22;4117;53.622;9.958;2023-05-07T02:41:03;8.50;1.00
8152;DHT22;4117;53.622;9.958;2023-05-07T02:43:30;8.60;1.00
8152;DHT22;4117;53.622;9.958;2023-05-07T02:46:01;8.60;1.00
8152;DHT22;4117;53.622;9.958;2023-05-07T02:48:29;8.60;1.00
8152;DHT22;4117;53.622;9.958;2023-05-07T02:50:57;8.60;1.00
8152;DHT22;4117;53.622;9.958;2023-05-07T02:53:24;8.60;1.00
8152;DHT22;4117;53.622;9.958;2023-05-07T02:55:52;8.60;1.00
8152;DHT22;4117;53.622;9.958;2023-05-07T02:58:19;8.60;1.00
8152;DHT22;4117;53.622;9.958;2023-05-07T03:00:46;8.60;1.00
8152;DHT22;4117;53.622;9.958;2023-05-07T03:03:15;8.60;1.00
8152;DHT22;4117;53.622;9.958;2023-05-07T03:05:43;8.60;1.00
8152;DHT22;4117;53.622;9.958;2023-05-07T03:08:12;8.60;1.00
8152;DHT22;4117;53.622;9.958;2023-05-07T03:10:39;8.60;1.00
8152;DHT22;4117;53.622;9.958;2023-05-07T03:13:06;8.50;1.00
8152;DHT22;4117;53.622;9.958;2023-05-07T03:15:33;8.50;1.00
8152;DHT22;4117;53.622;9.958;2023-05-07T03:18:00;8.50;1.00
8152;DHT22;4117;53.622;9.958;2023-05-07T03:20:27;8.50;1.00
8152;DHT22;4117;53.622;9.958;2023-05-07T03:22:54;8.50;1.00
8152;DHT22;4117;53.622;9.958;2023-05-07T03:25:22;8.50;1.00
8152;DHT22;4117;53.622;9.958;2023-05-07T03:27:49;8.50;1.00
8152;DHT22;4117;53.622;9.958;2023-05-07T03:30:16;8.50;1.00
8152;DHT22;4117;53.622;9.958;2023-05-07T03:32:43;8.50;1.00
8152;DHT22;4117;53.622;9.958;2023-05-07T03:35:10;8.50;1.00
8152;DHT22;4117;53.622;9.958;2023-05-07T03:37:38;8.50;1.00
8152;DHT22;4117;53.622;9.958;2023-05-07T03:40:06;8.50;1.00
8152;DHT22;4117;53.622;9.958;2023-05-07T03:42:34;8.50;1.00
8152;DHT22;4117;53.622;9.958;2023-05-07T03:45:01;8.50;1.00
8152;DHT22;4117;53.622;9.958;2023-05-07T03:47:28;8.50;1.00
8152;DHT22;4117;53.622;9.958;2023-05-07T03:49:55;8.50;1.00
8152;DHT22;4117;53.622;9.958;2023-05-07T03:52:23;8.50;1.00
8152;DHT22;4117;53.622;9.958;2023-05-07T03:54:52;8.60;1.00
8152;DHT22;4117;53.622;9.958;2023-05-07T03:57:19;8.60;1.00
8152;DHT22;4117;53.622;9.958;2023-05-07T03:59:50;8.50;1.00
8152;DHT22;4117;53.622;9.958;2023-05-07T04:02:17;8.50;1.00
8152;DHT22;4117;53.622;9.958;2023-05-07T04:04:44;8.50;1.00
8152;DHT22;4117;53.622;9.958;2023-05-07T04:07:16;8.50;1.00
8152;DHT22;4117;53.622;9.958;2023-05-07T04:09:43;8.50;1.00
8152;DHT22;4117;53.622;9.958;2023-05-07T04:12:11;8.50;1.00
8152;DHT22;4117;53.622;9.958;2023-05-07T04:14:38;8.60;1.00
8152;DHT22;4117;53.622;9.958;2023-05-07T04:17:06;8.60;1.00
8152;DHT22;4117;53.622;9.958;2023-05-07T04:19:35;8.60;1.00
8152;DHT22;4117;53.622;9.958;2023-05-07T04:22:02;8.60;1.00
8152;DHT22;4117;53.622;9.958;2023-05-07T04:24:31;8.60;1.00
8152;DHT22;4117;53.622;9.958;2023-05-07T04:26:58;8.60;1.00
8152;DHT22;4117;53.622;9.958;2023-05-07T04:29:25;8.60;1.00
8152;DHT22;4117;53.622;9.958;2023-05-07T04:31:52;8.60;1.00
8152;DHT22;4117;53.622;9.958;2023-05-07T04:34:22;8.60;1.00
8152;DHT22;4117;53.622;9.958;2023-05-07T04:36:49;8.60;1.00
8152;DHT22;4117;53.622;9.958;2023-05-07T04:39:16;8.60;1.00
8152;DHT22;4117;53.622;9.958;2023-05-07T04:41:43;8.60;1.00
8152;DHT22;4117;53.622;9.958;2023-05-07T04:44:10;8.60;1.00
8152;DHT22;4117;53.622;9.958;2023-05-07T04:46:37;8.60;1.00
8152;DHT22;4117;53.622;9.958;2023-05-07T04:49:04;8.60;1.00
8152;DHT22;4117;53.622;9.958;2023-05-07T04:51:33;8.60;1.00
8152;DHT22;4117;53.622;9.958;2023-05-07T04:53:59;8.60;1.00
8152;DHT22;4117;53.622;9.958;2023-05-07T04:56:28;8.60;1.00
8152;DHT22;4117;53.622;9.958;2023-05-07T04:58:55;8.60;1.00
8152;DHT22;4117;53.622;9.958;2023-05-07T05:01:22;8.70;1.00
8152;DHT22;4117;53.622;9.958;2023-05-07T05:03:50;8.70;1.00
8152;DHT22;4117;53.622;9.958;2023-05-07T05:06:19;8.70;1.00
8152;DHT22;4117;53.622;9.958;2023-05-07T05:08:48;8.70;1.00
8152;DHT22;4117;53.622;9.958;2023-05-07T05:11:15;8.70;1.00
8152;DHT22;4117;53.622;9.958;2023-05-07T05:13:42;8.70;1.00
8152;DHT22;4117;53.622;9.958;2023-05-07T05:16:08;8.70;1.00
8152;DHT22;4117;53.622;9.958;2023-05-07T05:18:36;8.70;1.00
8152;DHT22;4117;53.622;9.958;2023-05-07T05:21:04;8.80;1.00
8152;DHT22;4117;53.622;9.958;2023-05-07T05:23:31;8.70;1.00
8152;DHT22;4117;53.622;9.958;2023-05-07T05:25:59;8.70;1.00
8152;DHT22;4117;53.622;9.958;2023-05-07T05:28:27;8.80;1.00
8152;DHT22;4117;53.622;9.958;2023-05-07T05:30:54;8.80;1.00
8152;DHT22;4117;53.622;9.958;2023-05-07T05:33:21;8.70;1.00
8152;DHT22;4117;53.622;9.958;2023-05-07T05:35:49;8.70;1.00
8152;DHT22;4117;53.622;9.958;2023-05-07T05:38:18;8.80;1.00
8152;DHT22;4117;53.622;9.958;2023-05-07T05:40:46;8.80;1.00
8152;DHT22;4117;53.622;9.958;2023-05-07T05:43:14;8.80;1.00
8152;DHT22;4117;53.622;9.958;2023-05-07T05:45:45;8.80;1.00
8152;DHT22;4117;53.622;9.958;2023-05-07T05:48:12;8.80;1.00
8152;DHT22;4117;53.622;9.958;2023-05-07T05:50:38;8.80;1.00
8152;DHT22;4117;53.622;9.958;2023-05-07T05:53:05;8.80;1.00
8152;DHT22;4117;53.622;9.958;2023-05-07T05:55:32;8.80;1.00
8152;DHT22;4117;53.622;9.958;2023-05-07T05:57:59;8.80;1.00
8152;DHT22;4117;53.622;9.958;2023-05-07T06:00:29;8.80;1.00
8152;DHT22;4117;53.622;9.958;2023-05-07T06:02:58;8.90;1.00
8152;DHT22;4117;53.622;9.958;2023-05-07T06:05:25;8.80;1.00
8152;DHT22;4117;53.622;9.958;2023-05-07T06:07:51;8.80;1.00
8152;DHT22;4117;53.622;9.958;2023-05-07T06:10:18;8.90;1.00
8152;DHT22;4117;53.622;9.958;2023-05-07T06:12:45;8.90;1.00
8152;DHT22;4117;53.622;9.958;2023-05-07T06:15:12;8.90;1.00
8152;DHT22;4117;53.622;9.958;2023-05-07T06:17:42;8.90;1.00
8152;DHT22;4117;53.622;9.958;2023-05-07T06:20:11;8.90;1.00
8152;DHT22;4117;53.622;9.958;2023-05-07T06:22:39;8.90;1.00
8152;DHT22;4117;53.622;9.958;2023-05-07T06:25:07;8.90;1.00
8152;DHT22;4117;53.622;9.958;2023-05-07T06:27:34;8.90;1.00
8152;DHT22;4117;53.622;9.958;2023-05-07T06:30:01;9.00;1.00
8152;DHT22;4117;53.622;9.958;2023-05-07T06:32:28;9.00;1.00
8152;DHT22;4117;53.622;9.958;2023-05-07T06:34:56;9.00;1.00
8152;DHT22;4117;53.622;9.958;2023-05-07T06:37:23;8.90;1.00
8152;DHT22;4117;53.622;9.958;2023-05-07T06:39:50;8.90;1.00
8152;DHT22;4117;53.622;9.958;2023-05-07T06:42:17;9.00;1.00
8152;DHT22;4117;53.622;9.958;2023-05-07T06:44:44;9.00;1.00
8152;DHT22;4117;53.622;9.958;2023-05-07T06:47:11;9.00;1.00
8152;DHT22;4117;53.622;9.958;2023-05-07T06:49:38;9.00;1.00
8152;DHT22;4117;53.622;9.958;2023-05-07T06:52:06;9.00;1.00
8152;DHT22;4117;53.622;9.958;2023-05-07T06:54:33;9.10;1.00
8152;DHT22;4117;53.622;9.958;2023-05-07T06:57:00;9.10;1.00
8152;DHT22;4117;53.622;9.958;2023-05-07T06:59:27;9.10;1.00
8152;DHT22;4117;53.622;9.958;2023-05-07T07:01:54;9.20;1.00
8152;DHT22;4117;53.622;9.958;2023-05-07T07:04:21;9.20;1.00
8152;DHT22;4117;53.622;9.958;2023-05-07T07:06:49;9.20;1.00
8152;DHT22;4117;53.622;9.958;2023-05-07T07:09:19;9.20;1.00
8152;DHT22;4117;53.622;9.958;2023-05-07T07:11:46;9.20;1.00
8152;DHT22;4117;53.622;9.958;2023-05-07T07:14:13;9.20;1.00
8152;DHT22;4117;53.622;9.958;2023-05-07T07:16:40;9.20;1.00
8152;DHT22;4117;53.622;9.958;2023-05-07T07:19:07;9.20;1.00
8152;DHT22;4117;53.622;9.958;2023-05-07T07:21:34;9.30;1.00
8152;DHT22;4117;53.622;9.958;2023-05-07T07:24:01;9.30;1.00
8152;DHT22;4117;53.622;9.958;2023-05-07T07:26:29;9.30;1.00
8152;DHT22;4117;53.622;9.958;2023-05-07T07:28:56;9.40;1.00
8152;DHT22;4117;53.622;9.958;2023-05-07T07:31:23;9.40;1.00
8152;DHT22;4117;53.622;9.958;2023-05-07T07:33:50;9.40;1.00
8152;DHT22;4117;53.622;9.958;2023-05-07T07:36:17;9.40;1.00
8152;DHT22;4117;53.622;9.958;2023-05-07T07:38:44;9.40;1.00
8152;DHT22;4117;53.622;9.958;2023-05-07T07:41:11;9.50;1.00
8152;DHT22;4117;53.622;9.958;2023-05-07T07:43:39;9.50;1.00
8152;DHT22;4117;53.622;9.958;2023-05-07T07:46:06;9.50;1.00
8152;DHT22;4117;53.622;9.958;2023-05-07T07:48:33;9.50;1.00
8152;DHT22;4117;53.622;9.958;2023-05-07T07:51:00;9.50;1.00
8152;DHT22;4117;53.622;9.958;2023-05-07T07:53:27;9.60;1.00
8152;DHT22;4117;53.622;9.958;2023-05-07T07:55:56;9.60;1.00
8152;DHT22;4117;53.622;9.958;2023-05-07T07:58:22;9.60;1.00
8152;DHT22;4117;53.622;9.958;2023-05-07T08:00:51;9.60;1.00
8152;DHT22;4117;53.622;9.958;2023-05-07T08:03:22;9.60;1.00
8152;DHT22;4117;53.622;9.958;2023-05-07T08:05:49;9.70;1.00
8152;DHT22;4117;53.622;9.958;2023-05-07T08:08:16;9.70;1.00
8152;DHT22;4117;53.622;9.958;2023-05-07T08:10:46;9.70;1.00
8152;DHT22;4117;53.622;9.958;2023-05-07T08:13:15;9.80;1.00
8152;DHT22;4117;53.622;9.958;2023-05-07T08:15:42;9.80;1.00
8152;DHT22;4117;53.622;9.958;2023-05-07T08:18:11;9.80;1.00
8152;DHT22;4117;53.622;9.958;2023-05-07T08:20:37;9.90;1.00
8152;DHT22;4117;53.622;9.958;2023-05-07T08:23:05;9.90;1.00
8152;DHT22;4117;53.622;9.958;2023-05-07T08:25:33;10.00;1.00
8152;DHT22;4117;53.622;9.958;2023-05-07T08:28:00;10.00;1.00
8152;DHT22;4117;53.622;9.958;2023-05-07T08:30:27;10.00;1.00
8152;DHT22;4117;53.622;9.958;2023-05-07T08:32:54;9.90;1.00
8152;DHT22;4117;53.622;9.958;2023-05-07T08:35:23;9.90;1.00
8152;DHT22;4117;53.622;9.958;2023-05-07T08:37:53;10.00;1.00
8152;DHT22;4117;53.622;9.958;2023-05-07T08:40:24;10.00;1.00
8152;DHT22;4117;53.622;9.958;2023-05-07T08:42:54;10.00;1.00
8152;DHT22;4117;53.622;9.958;2023-05-07T08:45:24;10.00;1.00
8152;DHT22;4117;53.622;9.958;2023-05-07T08:47:58;10.00;1.00
8152;DHT22;4117;53.622;9.958;2023-05-07T08:50:29;10.00;1.00
8152;DHT22;4117;53.622;9.958;2023-05-07T08:52:57;10.10;1.00
8152;DHT22;4117;53.622;9.958;2023-05-07T08:55:25;10.00;1.00
8152;DHT22;4117;53.622;9.958;2023-05-07T08:57:54;10.10;1.00
8152;DHT22;4117;53.622;9.958;2023-05-07T09:00:21;10.10;1.00
8152;DHT22;4117;53.622;9.958;2023-05-07T09:02:48;10.10;1.00
8152;DHT22;4117;53.622;9.958;2023-05-07T09:05:16;10.10;1.00
8152;DHT22;4117;53.622;9.958;2023-05-07T09:07:44;10.10;1.00
8152;DHT22;4117;53.622;9.958;2023-05-07T09:10:12;10.10;1.00
8152;DHT22;4117;53.622;9.958;2023-05-07T09:12:39;10.10;1.00
8152;DHT22;4117;53.622;9.958;2023-05-07T09:15:08;10.10;1.00
8152;DHT22;4117;53.622;9.958;2023-05-07T09:17:35;10.10;1.00
8152;DHT22;4117;53.622;9.958;2023-05-07T09:20:03;10.10;1.00
8152;DHT22;4117;53.622;9.958;2023-05-07T09:22:31;10.20;1.00
8152;DHT22;4117;53.622;9.958;2023-05-07T09:25:00;10.20;1.00
8152;DHT22;4117;53.622;9.958;2023-05-07T09:27:27;10.20;1.00
8152;DHT22;4117;53.622;9.958;2023-05-07T09:29:54;10.30;1.00
8152;DHT22;4117;53.622;9.958;2023-05-07T09:32:21;10.30;1.00
8152;DHT22;4117;53.622;9.958;2023-05-07T09:34:49;10.30;1.00
8152;DHT22;4117;53.622;9.958;2023-05-07T09:37:16;10.40;1.00
8152;DHT22;4117;53.622;9.958;2023-05-07T09:39:44;10.40;1.00
8152;DHT22;4117;53.622;9.958;2023-05-07T09:42:13;10.50;1.00
8152;DHT22;4117;53.622;9.958;2023-05-07T09:44:41;10.50;1.00
8152;DHT22;4117;53.622;9.958;2023-05-07T09:47:08;10.50;1.00
8152;DHT22;4117;53.622;9.958;2023-05-07T09:49:36;10.50;1.00
8152;DHT22;4117;53.622;9.958;2023-05-07T09:52:04;10.60;1.00
8152;DHT22;4117;53.622;9.958;2023-05-07T09:54:37;10.60;1.00
8152;DHT22;4117;53.622;9.958;2023-05-07T09:57:11;10.60;1.00
8152;DHT22;4117;53.622;9.958;2023-05-07T09:59:42;10.70;1.00
8152;DHT22;4117;53.622;9.958;2023-05-07T10:02:11;10.70;1.00
8152;DHT22;4117;53.622;9.958;2023-05-07T10:04:40;10.70;1.00
8152;DHT22;4117;53.622;9.958;2023-05-07T10:07:07;10.80;1.00
8152;DHT22;4117;53.622;9.958;2023-05-07T10:09:37;10.70;1.00
8152;DHT22;4117;53.622;9.958;2023-05-07T10:12:05;10.70;1.00
8152;DHT22;4117;53.622;9.958;2023-05-07T10:14:34;10.70;1.00
8152;DHT22;4117;53.622;9.958;2023-05-07T10:17:03;10.70;1.00
8152;DHT22;4117;53.622;9.958;2023-05-07T10:19:31;10.80;1.00
8152;DHT22;4117;53.622;9.958;2023-05-07T10:22:02;10.80;1.00
8152;DHT22;4117;53.622;9.958;2023-05-07T10:24:32;10.80;1.00
8152;DHT22;4117;53.622;9.958;2023-05-07T10:27:01;10.80;1.00
8152;DHT22;4117;53.622;9.958;2023-05-07T10:29:36;10.90;1.00
8152;DHT22;4117;53.622;9.958;2023-05-07T10:32:19;10.90;1.00
8152;DHT22;4117;53.622;9.958;2023-05-07T10:34:55;10.80;1.00
8152;DHT22;4117;53.622;9.958;2023-05-07T10:37:23;10.90;1.00
8152;DHT22;4117;53.622;9.958;2023-05-07T10:39:51;10.90;1.00
8152;DHT22;4117;53.622;9.958;2023-05-07T10:42:19;10.90;1.00
8152;DHT22;4117;53.622;9.958;2023-05-07T10:44:46;10.90;1.00
8152;DHT22;4117;53.622;9.958;2023-05-07T10:47:16;10.90;1.00
8152;DHT22;4117;53.622;9.958;2023-05-07T10:53:24;10.90;1.00
8152;DHT22;4117;53.622;9.958;2023-05-07T10:56:24;10.90;1.00
8152;DHT22;4117;53.622;9.958;2023-05-07T10:58:52;11.00;1.00
8152;DHT22;4117;53.622;9.958;2023-05-07T11:01:52;11.10;1.00
8152;DHT22;4117;53.622;9.958;2023-05-07T11:04:24;11.00;1.00
8152;DHT22;4117;53.622;9.958;2023-05-07T11:07:24;11.10;1.00
8152;DHT22;4117;53.622;9.958;2023-05-07T11:10:04;11.20;1.00
8152;DHT22;4117;53.622;9.958;2023-05-07T11:12:54;11.20;1.00
8152;DHT22;4117;53.622;9.958;2023-05-07T11:15:43;11.30;1.00
8152;DHT22;4117;53.622;9.958;2023-05-07T11:18:11;11.50;1.00
8152;DHT22;4117;53.622;9.958;2023-05-07T11:20:54;11.50;1.00
8152;DHT22;4117;53.622;9.958;2023-05-07T11:23:54;11.60;1.00
8152;DHT22;4117;53.622;9.958;2023-05-07T11:26:22;11.70;1.00
8152;DHT22;4117;53.622;9.958;2023-05-07T11:28:49;11.70;1.00
8152;DHT22;4117;53.622;9.958;2023-05-07T11:31:21;11.70;1.00
8152;DHT22;4117;53.622;9.958;2023-05-07T11:33:48;11.80;1.00
8152;DHT22;4117;53.622;9.958;2023-05-07T11:36:18;11.80;1.00
8152;DHT22;4117;53.622;9.958;2023-05-07T11:38:48;11.80;1.00
8152;DHT22;4117;53.622;9.958;2023-05-07T11:41:15;11.90;1.00
8152;DHT22;4117;53.622;9.958;2023-05-07T11:43:56;12.00;1.00
8152;DHT22;4117;53.622;9.958;2023-05-07T11:46:23;12.00;1.00
8152;DHT22;4117;53.622;9.958;2023-05-07T11:48:50;12.10;1.00
8152;DHT22;4117;53.622;9.958;2023-05-07T11:51:23;12.20;1.00
8152;DHT22;4117;53.622;9.958;2023-05-07T11:53:52;12.20;1.00
8152;DHT22;4117;53.622;9.958;2023-05-07T11:56:19;12.30;1.00
8152;DHT22;4117;53.622;9.958;2023-05-07T11:58:47;12.30;1.00
8152;DHT22;4117;53.622;9.958;2023-05-07T12:01:15;12.30;1.00
8152;DHT22;4117;53.622;9.958;2023-05-07T12:03:45;12.30;1.00
8152;DHT22;4117;53.622;9.958;2023-05-07T12:06:14;12.40;1.00
8152;DHT22;4117;53.622;9.958;2023-05-07T12:08:43;12.40;1.00
8152;DHT22;4117;53.622;9.958;2023-05-07T12:11:14;12.50;1.00
8152;DHT22;4117;53.622;9.958;2023-05-07T12:13:41;12.50;1.00
8152;DHT22;4117;53.622;9.958;2023-05-07T12:16:09;12.50;1.00
8152;DHT22;4117;53.622;9.958;2023-05-07T12:18:36;12.50;1.00
8152;DHT22;4117;53.622;9.958;2023-05-07T12:21:05;12.60;1.00
8152;DHT22;4117;53.622;9.958;2023-05-07T12:23:33;12.70;1.00
8152;DHT22;4117;53.622;9.958;2023-05-07T12:26:02;12.70;1.00
8152;DHT22;4117;53.622;9.958;2023-05-07T12:28:30;12.80;1.00
8152;DHT22;4117;53.622;9.958;2023-05-07T12:30:57;12.70;1.00
8152;DHT22;4117;53.622;9.958;2023-05-07T12:33:26;12.70;1.00
8152;DHT22;4117;53.622;9.958;2023-05-07T12:35:54;12.80;1.00
8152;DHT22;4117;53.622;9.958;2023-05-07T12:38:22;12.90;1.00
8152;DHT22;4117;53.622;9.958;2023-05-07T12:40:50;12.90;1.00
8152;DHT22;4117;53.622;9.958;2023-05-07T12:43:20;13.00;1.00
8152;DHT22;4117;53.622;9.958;2023-05-07T12:45:48;13.00;1.00
8152;DHT22;4117;53.622;9.958;2023-05-07T12:48:16;13.10;1.00
8152;DHT22;4117;53.622;9.958;2023-05-07T12:50:43;13.10;1.00
8152;DHT22;4117;53.622;9.958;2023-05-07T12:53:11;13.20;1.00
8152;DHT22;4117;53.622;9.958;2023-05-07T12:55:42;13.20;1.00
8152;DHT22;4117;53.622;9.958;2023-05-07T12:58:19;13.20;1.00
8152;DHT22;4117;53.622;9.958;2023-05-07T13:00:48;13.20;1.00
8152;DHT22;4117;53.622;9.958;2023-05-07T13:03:21;13.20;1.00
8152;DHT22;4117;53.622;9.958;2023-05-07T13:05:49;13.30;1.00
8152;DHT22;4117;53.622;9.958;2023-05-07T13:08:30;13.40;1.00
8152;DHT22;4117;53.622;9.958;2023-05-07T13:10:58;13.40;1.00
8152;DHT22;4117;53.622;9.958;2023-05-07T13:13:33;13.50;1.00
8152;DHT22;4117;53.622;9.958;2023-05-07T13:16:02;13.40;1.00
8152;DHT22;4117;53.622;9.958;2023-05-07T13:18:32;13.40;1.00
8152;DHT22;4117;53.622;9.958;2023-05-07T13:21:00;13.50;1.00
8152;DHT22;4117;53.622;9.958;2023-05-07T13:23:27;13.50;1.00
8152;DHT22;4117;53.622;9.958;2023-05-07T13:25:54;13.60;1.00
8152;DHT22;4117;53.622;9.958;2023-05-07T13:28:23;13.60;1.00
8152;DHT22;4117;53.622;9.958;2023-05-07T13:30:55;13.70;1.00
8152;DHT22;4117;53.622;9.958;2023-05-07T13:33:22;13.70;1.00
8152;DHT22;4117;53.622;9.958;2023-05-07T13:35:53;13.90;1.00
8152;DHT22;4117;53.622;9.958;2023-05-07T13:38:22;14.00;1.00
8152;DHT22;4117;53.622;9.958;2023-05-07T13:40:49;14.10;1.00
8152;DHT22;4117;53.622;9.958;2023-05-07T13:43:16;14.20;1.00
8152;DHT22;4117;53.622;9.958;2023-05-07T13:45:44;14.10;1.00
8152;DHT22;4117;53.622;9.958;2023-05-07T13:48:13;14.20;1.00
8152;DHT22;4117;53.622;9.958;2023-05-07T13:50:40;14.30;1.00
8152;DHT22;4117;53.622;9.958;2023-05-07T13:53:07;14.50;1.00
8152;DHT22;4117;53.622;9.958;2023-05-07T13:55:34;14.60;1.00
8152;DHT22;4117;53.622;9.958;2023-05-07T13:58:02;14.60;1.00
8152;DHT22;4117;53.622;9.958;2023-05-07T14:00:29;14.70;1.00
8152;DHT22;4117;53.622;9.958;2023-05-07T14:02:56;14.60;1.00
8152;DHT22;4117;53.622;9.958;2023-05-07T14:05:24;14.60;1.00
8152;DHT22;4117;53.622;9.958;2023-05-07T14:07:53;14.70;1.00
8152;DHT22;4117;53.622;9.958;2023-05-07T14:10:21;14.80;1.00
8152;DHT22;4117;53.622;9.958;2023-05-07T14:12:48;14.90;1.00
8152;DHT22;4117;53.622;9.958;2023-05-07T14:15:15;15.10;1.00
8152;DHT22;4117;53.622;9.958;2023-05-07T14:17:42;15.30;1.00
8152;DHT22;4117;53.622;9.958;2023-05-07T14:20:12;15.30;1.00
8152;DHT22;4117;53.622;9.958;2023-05-07T14:22:41;15.40;1.00
8152;DHT22;4117;53.622;9.958;2023-05-07T14:25:08;15.40;1.00
8152;DHT22;4117;53.622;9.958;2023-05-07T14:27:36;15.40;1.00
8152;DHT22;4117;53.622;9.958;2023-05-07T14:30:03;15.40;1.00
8152;DHT22;4117;53.622;9.958;2023-05-07T14:32:34;15.40;1.00
8152;DHT22;4117;53.622;9.958;2023-05-07T14:35:01;15.40;1.00
8152;DHT22;4117;53.622;9.958;2023-05-07T14:37:28;15.50;1.00
8152;DHT22;4117;53.622;9.958;2023-05-07T14:39:57;15.60;1.00
8152;DHT22;4117;53.622;9.958;2023-05-07T14:42:24;15.70;1.00
8152;DHT22;4117;53.622;9.958;2023-05-07T14:44:51;15.80;1.00
8152;DHT22;4117;53.622;9.958;2023-05-07T14:47:18;15.80;1.00
8152;DHT22;4117;53.622;9.958;2023-05-07T14:49:46;15.80;1.00
8152;DHT22;4117;53.622;9.958;2023-05-07T14:52:13;15.90;1.00
8152;DHT22;4117;53.622;9.958;2023-05-07T14:54:41;16.10;1.00
8152;DHT22;4117;53.622;9.958;2023-05-07T14:57:10;16.20;1.00
8152;DHT22;4117;53.622;9.958;2023-05-07T14:59:39;16.30;1.00
8152;DHT22;4117;53.622;9.958;2023-05-07T15:02:07;16.20;1.00
8152;DHT22;4117;53.622;9.958;2023-05-07T15:04:34;16.00;1.00
8152;DHT22;4117;53.622;9.958;2023-05-07T15:07:06;15.90;1.00
8152;DHT22;4117;53.622;9.958;2023-05-07T15:09:33;15.80;1.00
8152;DHT22;4117;53.622;9.958;2023-05-07T15:12:00;15.90;1.00
8152;DHT22;4117;53.622;9.958;2023-05-07T15:14:39;15.80;1.00
8152;DHT22;4117;53.622;9.958;2023-05-07T15:17:06;15.70;1.00
8152;DHT22;4117;53.622;9.958;2023-05-07T15:19:34;15.60;1.00
8152;DHT22;4117;53.622;9.958;2023-05-07T15:22:01;15.70;1.00
8152;DHT22;4117;53.622;9.958;2023-05-07T15:24:28;15.70;1.00
8152;DHT22;4117;53.622;9.958;2023-05-07T15:26:58;15.60;1.00
8152;DHT22;4117;53.622;9.958;2023-05-07T15:29:26;15.70;1.00
8152;DHT22;4117;53.622;9.958;2023-05-07T15:31:55;15.70;1.00
8152;DHT22;4117;53.622;9.958;2023-05-07T15:34:25;15.70;1.00
8152;DHT22;4117;53.622;9.958;2023-05-07T15:36:53;15.60;1.00
8152;DHT22;4117;53.622;9.958;2023-05-07T15:39:20;15.50;1.00
8152;DHT22;4117;53.622;9.958;2023-05-07T15:41:47;15.50;1.00
8152;DHT22;4117;53.622;9.958;2023-05-07T15:44:14;15.40;1.00
8152;DHT22;4117;53.622;9.958;2023-05-07T15:46:41;15.40;1.00
8152;DHT22;4117;53.622;9.958;2023-05-07T15:49:09;15.50;1.00
8152;DHT22;4117;53.622;9.958;2023-05-07T15:51:37;15.40;1.00
8152;DHT22;4117;53.622;9.958;2023-05-07T15:54:04;15.40;1.00
8152;DHT22;4117;53.622;9.958;2023-05-07T15:56:31;15.40;1.00
8152;DHT22;4117;53.622;9.958;2023-05-07T15:58:58;15.40;1.00
8152;DHT22;4117;53.622;9.958;2023-05-07T16:01:26;15.40;1.00
8152;DHT22;4117;53.622;9.958;2023-05-07T16:03:54;15.30;1.00
8152;DHT22;4117;53.622;9.958;2023-05-07T16:06:23;15.30;1.00
8152;DHT22;4117;53.622;9.958;2023-05-07T16:08:50;15.30;1.00
8152;DHT22;4117;53.622;9.958;2023-05-07T16:11:18;15.30;1.00
8152;DHT22;4117;53.622;9.958;2023-05-07T16:13:46;15.30;1.00
8152;DHT22;4117;53.622;9.958;2023-05-07T16:16:13;15.30;1.00
8152;DHT22;4117;53.622;9.958;2023-05-07T16:18:40;15.30;1.00
8152;DHT22;4117;53.622;9.958;2023-05-07T16:21:08;15.30;1.00
8152;DHT22;4117;53.622;9.958;2023-05-07T16:23:36;15.40;1.00
8152;DHT22;4117;53.622;9.958;2023-05-07T16:26:03;15.40;1.00
8152;DHT22;4117;53.622;9.958;2023-05-07T16:28:32;15.40;1.00
8152;DHT22;4117;53.622;9.958;2023-05-07T16:31:00;15.40;1.00
8152;DHT22;4117;53.622;9.958;2023-05-07T16:33:27;15.40;1.00
8152;DHT22;4117;53.622;9.958;2023-05-07T16:35:54;15.30;1.00
8152;DHT22;4117;53.622;9.958;2023-05-07T16:38:21;15.40;1.00